Time;durP1;ratioP1;P1;durP2;ratioP2;P2;SDS_P1;SDS_P2;PMS_P1;PMS_P2;Temp;Humidity;BMP_temperature;BMP_pressure;BME280_temperature;BME280_humidity;BME280_pressure;Samples;Min_cycle;Max_cycle;Signal;HPM_P1;HPM_P2
2021/03/19 00:00:50;;;;;;;19.63;17.53;;;1.60;99.90;;;2.29;89.31;97902.31;5214459;28;20220;-58
2021/03/19 00:03:22;;;;;;;20.57;18.47;;;1.70;99.90;;;2.27;89.53;97893.75;5207857;28;20647;-58
2021/03/19 00:05:54;;;;;;;23.03;18.97;;;1.60;99.90;;;2.30;89.40;97894.03;5208499;28;20204;-56
2021/03/19 00:08:27;;;;;;;21.53;18.23;;;1.60;99.90;;;2.27;90.12;97883.69;5220391;28;20581;-56
2021/03/19 00:10:59;;;;;;;22.53;19.10;;;1.70;99.90;;;2.33;90.08;97894.31;5226563;28;20223;-56
2021/03/19 00:13:31;;;;;;;22.47;19.90;;;1.70;99.90;;;2.38;90.09;97893.09;5215413;28;20209;-58
2021/03/19 00:16:07;;;;;;;25.80;20.90;;;1.80;99.90;;;2.40;90.03;97891.56;5211089;28;20212;-58
2021/03/19 00:18:39;;;;;;;22.97;20.40;;;1.80;99.90;;;2.44;89.87;97888.59;5187469;28;20214;-58
2021/03/19 00:21:12;;;;;;;25.00;22.20;;;1.80;99.90;;;2.43;90.14;97887.69;5202268;28;20308;-57
2021/03/19 00:23:44;;;;;;;24.73;22.03;;;1.80;99.90;;;2.44;90.26;97888.59;5215722;28;20224;-58
2021/03/19 00:26:16;;;;;;;21.87;19.57;;;1.80;99.90;;;2.44;89.82;97891.97;5221390;28;20214;-58
2021/03/19 00:28:48;;;;;;;23.97;20.67;;;1.80;99.90;;;2.44;89.28;97884.41;5223187;28;20210;-58
2021/03/19 00:31:21;;;;;;;24.13;21.53;;;1.80;99.90;;;2.36;89.32;97884.50;5210420;28;20221;-58
2021/03/19 00:33:53;;;;;;;23.73;21.23;;;1.80;99.90;;;2.37;89.05;97879.56;5207699;28;20292;-58
2021/03/19 00:36:25;;;;;;;24.33;20.63;;;1.70;99.90;;;2.43;89.87;97884.25;5206964;28;20194;-58
2021/03/19 00:38:58;;;;;;;23.43;20.57;;;1.80;99.90;;;2.46;89.22;97887.06;5218477;28;20679;-58
2021/03/19 00:41:31;;;;;;;23.93;20.80;;;1.80;99.90;;;2.51;89.57;97879.91;5217728;28;20224;-57
2021/03/19 00:44:03;;;;;;;23.87;21.33;;;1.80;99.90;;;2.43;89.81;97885.19;5215862;28;20206;-58
2021/03/19 00:46:36;;;;;;;24.43;21.83;;;1.70;99.90;;;2.42;89.92;97879.97;5209444;28;20205;-58
2021/03/19 00:49:09;;;;;;;26.97;24.07;;;1.80;99.90;;;2.49;89.49;97884.84;5207281;28;20517;-57
2021/03/19 00:51:40;;;;;;;30.33;26.90;;;1.80;99.90;;;2.49;89.78;97879.78;5206802;28;20228;-57
2021/03/19 00:54:13;;;;;;;29.07;25.20;;;1.80;99.90;;;2.50;89.72;97880.66;5221594;28;20198;-58
2021/03/19 00:56:45;;;;;;;26.43;23.30;;;1.80;99.90;;;2.45;89.66;97883.66;5218131;28;20657;-56
2021/03/19 00:59:17;;;;;;;25.40;22.70;;;1.80;99.90;;;2.48;90.00;97880.53;5206850;28;20299;-57
2021/03/19 01:01:50;;;;;;;23.50;21.00;;;1.80;99.90;;;2.52;89.53;97876.63;5206860;28;20247;-56
2021/03/19 01:04:22;;;;;;;23.27;20.77;;;1.80;99.90;;;2.51;89.49;97864.78;5207230;28;20220;-58
2021/03/19 01:06:54;;;;;;;22.70;20.23;;;1.80;99.90;;;2.52;89.73;97858.97;5206772;28;20297;-59
2021/03/19 01:09:26;;;;;;;22.03;19.73;;;1.80;99.90;;;2.54;89.31;97860.88;5211158;28;20271;-56
2021/03/19 01:11:59;;;;;;;22.87;20.47;;;1.80;99.90;;;2.55;90.00;97862.66;5206477;28;20225;-56
2021/03/19 01:14:31;;;;;;;23.27;20.73;;;1.80;99.90;;;2.57;89.38;97861.13;5210025;28;20208;-56
2021/03/19 01:17:05;;;;;;;23.77;20.87;;;1.80;99.90;;;2.55;89.93;97864.28;5206755;28;20239;-58
2021/03/19 01:19:37;;;;;;;23.53;21.13;;;1.80;99.90;;;2.54;90.46;97858.34;5206518;28;20203;-58
2021/03/19 01:22:09;;;;;;;21.30;19.13;;;1.80;99.90;;;2.58;90.12;97860.41;5206487;28;20225;-58
2021/03/19 01:24:41;;;;;;;22.60;20.10;;;1.80;99.90;;;2.56;89.76;97855.97;5222727;28;20204;-58
2021/03/19 01:27:13;;;;;;;22.13;19.83;;;1.70;99.90;;;2.56;89.99;97853.44;5224773;28;20229;-58
2021/03/19 01:29:45;;;;;;;23.23;20.10;;;1.70;99.90;;;2.54;89.78;97849.91;5196790;28;20199;-58
2021/03/19 01:32:18;;;;;;;20.97;18.77;;;1.70;99.90;;;2.52;89.58;97854.84;5205958;28;20706;-59
2021/03/19 01:34:50;;;;;;;21.80;19.43;;;1.60;99.90;;;2.56;90.24;97850.94;5206688;28;20218;-58
2021/03/19 01:37:22;;;;;;;23.20;20.67;;;1.70;99.90;;;2.54;90.12;97857.47;5207336;28;20194;-56
2021/03/19 01:39:54;;;;;;;23.60;21.03;;;1.70;99.90;;;2.50;90.73;97852.91;5227414;28;20209;-58
2021/03/19 01:42:26;;;;;;;22.77;20.07;;;1.70;99.90;;;2.50;90.93;97853.81;5218835;28;20569;-57
2021/03/19 01:46:05;;;;;;;21.63;19.40;;;1.70;99.90;;;2.49;90.83;97841.97;5216425;28;20195;-58
2021/03/19 01:49:33;;;;;;;23.40;20.77;;;1.70;99.90;;;2.54;90.83;97845.75;5204006;28;20574;-56
2021/03/19 01:53:01;;;;;;;22.43;19.77;;;1.70;99.90;;;2.51;91.12;97835.38;5205618;28;20233;-57
2021/03/19 01:56:29;;;;;;;23.50;21.03;;;1.70;99.90;;;2.56;89.89;97836.69;5220298;28;20203;-56
2021/03/19 01:59:57;;;;;;;22.87;20.47;;;1.60;99.90;;;2.59;89.26;97831.88;5217574;28;20204;-57
2021/03/19 02:03:25;;;;;;;21.13;18.97;;;1.60;99.90;;;2.47;90.20;97819.09;5202756;28;20218;-58
2021/03/19 02:06:53;;;;;;;24.07;19.50;;;1.60;99.90;;;2.42;90.68;97827.03;5205960;28;20226;-56
2021/03/19 02:10:21;;;;;;;22.77;19.83;;;1.60;99.90;;;2.38;90.62;97819.94;5200847;28;20580;-58
2021/03/19 02:13:49;;;;;;;23.97;20.33;;;1.60;99.90;;;2.35;90.32;97824.72;5206267;28;20198;-57
2021/03/19 02:17:17;;;;;;;24.37;21.27;;;1.60;99.90;;;2.35;90.95;97822.19;5208305;28;20227;-58
2021/03/19 02:20:45;;;;;;;25.40;22.03;;;1.60;99.90;;;2.31;91.58;97822.66;5205505;28;20206;-57
2021/03/19 02:24:13;;;;;;;25.90;22.77;;;1.60;99.90;;;2.23;90.51;97838.03;5200098;28;20194;-57
2021/03/19 02:27:41;;;;;;;29.20;23.63;;;1.60;99.90;;;2.33;90.62;97834.66;5207041;28;20235;-57
2021/03/19 02:31:08;;;;;;;25.60;22.40;;;1.60;99.90;;;2.36;90.60;97829.00;5214133;28;20228;-58
2021/03/19 02:33:47;;;;;;;26.60;23.60;;;1.70;99.90;;;2.39;90.32;97831.78;5177634;28;20290;-57
2021/03/19 02:36:22;;;;;;;28.40;24.20;;;1.70;99.90;;;2.33;90.80;97826.22;5205643;28;20206;-58
2021/03/19 02:38:55;;;;;;;26.80;23.87;;;1.60;99.90;;;2.33;90.54;97838.81;5205557;28;20205;-59
2021/03/19 02:41:27;;;;;;;28.17;24.13;;;1.60;99.90;;;2.33;90.78;97834.66;5219056;28;20230;-58
2021/03/19 02:43:59;;;;;;;29.20;25.10;;;1.60;99.90;;;2.30;90.01;97841.09;5217305;28;20209;-57
2021/03/19 02:46:31;;;;;;;26.93;23.93;;;1.50;99.90;;;2.24;90.47;97838.91;5208207;28;20595;-59
2021/03/19 02:49:05;;;;;;;27.33;24.13;;;1.50;99.90;;;2.27;90.38;97848.38;5205209;28;20213;-58
2021/03/19 02:51:37;;;;;;;29.13;24.93;;;1.50;99.90;;;2.29;89.98;97846.84;5204604;28;20229;-56
2021/03/19 02:54:10;;;;;;;31.50;25.33;;;1.60;99.90;;;2.31;90.51;97830.22;5221165;28;20197;-58
2021/03/19 02:56:42;;;;;;;28.27;25.27;;;1.60;99.90;;;2.37;90.48;97828.25;5222493;28;20203;-58
2021/03/19 02:59:14;;;;;;;27.97;24.07;;;1.60;99.90;;;2.38;89.88;97825.00;5218128;28;20200;-57
2021/03/19 03:01:46;;;;;;;26.83;22.77;;;1.60;99.90;;;2.40;90.45;97816.78;5215498;28;20292;-57
2021/03/19 03:04:20;;;;;;;24.20;21.53;;;1.60;99.90;;;2.41;90.07;97817.69;5205286;28;20206;-57
2021/03/19 03:06:56;;;;;;;26.63;22.90;;;1.60;99.90;;;2.43;90.81;97811.13;5204638;28;20443;-58
2021/03/19 03:09:31;;;;;;;26.30;23.10;;;1.60;99.90;;;2.42;90.52;97816.94;5216813;28;20232;-58
2021/03/19 03:12:06;;;;;;;25.23;22.30;;;1.60;99.90;;;2.41;91.05;97818.56;5220215;28;20230;-57
2021/03/19 03:14:38;;;;;;;25.07;22.37;;;1.60;99.90;;;2.44;90.60;97823.88;5202089;28;20214;-57
2021/03/19 03:17:11;;;;;;;25.07;21.90;;;1.60;99.90;;;2.42;90.67;97817.81;5204106;28;20205;-58
2021/03/19 03:19:44;;;;;;;26.07;22.07;;;1.60;99.90;;;2.39;90.85;97816.66;5204958;28;20204;-57
2021/03/19 03:22:16;;;;;;;27.70;22.70;;;1.60;99.90;;;2.42;90.89;97819.44;5204870;28;20622;-57
2021/03/19 03:24:48;;;;;;;26.37;23.37;;;1.60;99.90;;;2.42;90.83;97819.44;5219042;28;20202;-57
2021/03/19 03:27:20;;;;;;;30.30;25.47;;;1.60;99.90;;;2.37;91.10;97820.69;5222107;28;20207;-57
2021/03/19 03:29:52;;;;;;;30.50;26.40;;;1.60;99.90;;;2.42;90.48;97819.44;5204336;28;20211;-58
2021/03/19 03:32:24;;;;;;;33.00;28.03;;;1.70;99.90;;;2.38;90.62;97830.91;5204904;28;20645;-58
2021/03/19 03:34:57;;;;;;;29.90;25.37;;;1.70;99.90;;;2.40;90.37;97826.00;5204731;28;20698;-58
2021/03/19 03:37:29;;;;;;;30.87;26.80;;;1.70;99.90;;;2.43;90.83;97813.66;5208050;28;20227;-57
2021/03/19 03:40:01;;;;;;;31.30;26.33;;;1.70;99.90;;;2.46;90.29;97812.28;5221525;28;20198;-55
2021/03/19 03:42:34;;;;;;;31.83;26.40;;;1.80;99.90;;;2.48;90.46;97818.34;5216663;28;20201;-58
2021/03/19 03:45:09;;;;;;;31.13;26.33;;;1.80;99.90;;;2.52;90.43;97806.00;5211592;28;20567;-58
2021/03/19 03:47:41;;;;;;;27.57;24.00;;;1.80;99.90;;;2.48;90.73;97807.38;5204011;28;20195;-57
2021/03/19 03:50:20;;;;;;;26.50;23.60;;;1.70;99.90;;;2.44;89.65;97807.88;5204079;28;20275;-58
2021/03/19 03:53:10;;;;;;;27.43;23.63;;;1.70;99.90;;;2.40;90.20;97804.16;5212903;28;20203;-57
2021/03/19 03:55:43;;;;;;;27.17;24.03;;;1.60;99.90;;;2.41;90.43;97807.59;5223835;28;20214;-59
2021/03/19 03:58:16;;;;;;;26.83;23.07;;;1.60;99.90;;;2.42;89.88;97810.25;5221637;28;20212;-58
2021/03/19 04:00:48;;;;;;;26.10;23.20;;;1.60;99.90;;;2.40;90.09;97805.81;5207998;28;20222;-57
2021/03/19 04:03:21;;;;;;;29.90;25.67;;;1.60;99.90;;;2.31;89.98;97805.91;5204795;28;20209;-57
2021/03/19 04:05:55;;;;;;;29.87;24.60;;;1.60;99.90;;;2.32;89.78;97801.72;5204338;28;20204;-55
2021/03/19 04:08:30;;;;;;;30.33;26.10;;;1.60;99.90;;;2.33;90.07;97804.41;5204920;28;20299;-58
2021/03/19 04:11:06;;;;;;;27.57;24.17;;;1.60;99.90;;;2.33;90.77;97811.09;5220889;28;20231;-58
2021/03/19 04:13:38;;;;;;;30.60;26.20;;;1.60;99.90;;;2.24;90.56;97817.09;5211514;28;20206;-56
2021/03/19 04:16:11;;;;;;;30.70;25.90;;;1.50;99.90;;;2.25;90.92;97813.81;5207115;28;20234;-58
2021/03/19 04:18:44;;;;;;;29.50;24.67;;;1.60;99.90;;;2.25;90.36;97808.75;5207657;28;20197;-57
2021/03/19 04:21:17;;;;;;;31.07;25.50;;;1.60;99.90;;;2.30;90.98;97813.34;5207663;28;20217;-58
2021/03/19 04:23:50;;;;;;;30.67;25.67;;;1.60;99.90;;;2.31;90.50;97812.59;5213931;28;20201;-58
2021/03/19 04:26:27;;;;;;;30.47;25.70;;;1.60;99.90;;;2.30;91.11;97809.19;5226584;28;20644;-57
2021/03/19 04:29:00;;;;;;;31.20;27.27;;;1.60;99.90;;;2.34;90.13;97810.31;5225073;28;20224;-58
2021/03/19 04:31:32;;;;;;;33.33;27.10;;;1.60;99.90;;;2.32;90.08;97814.34;5210393;28;20232;-57
2021/03/19 04:34:04;;;;;;;33.03;26.73;;;1.60;99.90;;;2.34;89.96;97802.75;5207804;28;20200;-58
2021/03/19 04:36:44;;;;;;;31.13;25.70;;;1.60;99.90;;;2.37;89.83;97810.59;5207151;28;20217;-57
2021/03/19 04:39:22;;;;;;;30.60;24.40;;;1.60;99.90;;;2.36;90.26;97816.41;5221307;28;20284;-55
2021/03/19 04:41:57;;;;;;;30.57;26.43;;;1.60;99.90;;;2.35;89.58;97817.16;5209847;28;20326;-57
2021/03/19 04:44:34;;;;;;;30.30;25.87;;;1.60;99.90;;;2.28;90.38;97815.72;5217286;28;20197;-56
2021/03/19 04:47:07;;;;;;;30.20;26.03;;;1.50;99.90;;;2.27;89.54;97815.59;5207442;28;20203;-58
2021/03/19 04:49:39;;;;;;;30.13;25.80;;;1.50;99.90;;;2.27;89.91;97818.13;5212290;28;20263;-58
2021/03/19 04:52:12;;;;;;;33.17;26.53;;;1.50;99.90;;;2.31;90.27;97820.16;5207992;28;20302;-59
2021/03/19 04:54:44;;;;;;;34.43;26.77;;;1.60;99.90;;;2.32;90.41;97817.78;5221642;28;20322;-56
2021/03/19 04:57:16;;;;;;;28.57;24.53;;;1.50;99.90;;;2.25;89.68;97828.94;5220634;28;20200;-58
2021/03/19 04:59:48;;;;;;;31.87;25.97;;;1.50;99.90;;;2.29;90.45;97821.63;5214029;28;20597;-57
2021/03/19 05:02:32;;;;;;;30.27;25.70;;;1.50;99.90;;;2.30;90.24;97828.47;5213858;28;20566;-57
2021/03/19 05:05:08;;;;;;;30.87;25.57;;;1.60;99.90;;;2.25;91.05;97830.56;5213430;28;20664;-59
2021/03/19 05:07:41;;;;;;;32.47;26.33;;;1.60;99.90;;;2.28;90.58;97835.00;5206518;28;20204;-57
2021/03/19 05:10:15;;;;;;;32.03;27.17;;;1.60;99.90;;;2.31;90.88;97822.66;5221379;28;20311;-57
2021/03/19 05:12:48;;;;;;;32.10;25.73;;;1.60;99.90;;;2.32;91.03;97824.44;5228236;28;20203;-58
2021/03/19 05:15:21;;;;;;;30.13;26.07;;;1.60;99.90;;;2.38;91.40;97828.41;5210720;28;20292;-56
2021/03/19 05:17:53;;;;;;;32.83;26.90;;;1.60;99.90;;;2.42;90.01;97821.97;5206420;28;20204;-58
2021/03/19 05:20:26;;;;;;;30.50;26.07;;;1.60;99.90;;;2.38;90.48;97825.00;5208306;28;20695;-59
2021/03/19 05:22:59;;;;;;;30.03;25.80;;;1.60;99.90;;;2.34;90.78;97828.84;5211134;28;20212;-56
2021/03/19 05:25:32;;;;;;;33.23;27.87;;;1.60;99.90;;;2.32;90.39;97830.38;5227350;28;20209;-58
2021/03/19 05:28:05;;;;;;;31.17;25.80;;;1.60;99.90;;;2.27;90.08;97840.81;5215385;28;20625;-57
2021/03/19 05:30:37;;;;;;;28.20;25.17;;;1.50;99.90;;;2.24;89.31;97834.75;5216065;28;20228;-57
2021/03/19 05:33:09;;;;;;;28.23;25.13;;;1.40;99.90;;;2.21;89.29;97842.03;5212317;28;20210;-58
2021/03/19 05:35:41;;;;;;;29.73;26.43;;;1.50;99.90;;;2.23;89.57;97838.03;5211148;28;20204;-57
2021/03/19 05:38:14;;;;;;;32.23;26.63;;;1.50;99.90;;;2.19;90.09;97835.97;5220725;28;20207;-58
2021/03/19 05:40:50;;;;;;;31.73;26.60;;;1.50;99.90;;;2.18;90.04;97836.72;5205899;28;20307;-58
2021/03/19 05:43:30;;;;;;;30.33;25.13;;;1.50;99.90;;;2.24;89.83;97833.88;5212121;28;20212;-58
2021/03/19 05:46:06;;;;;;;34.20;28.07;;;1.50;99.90;;;2.31;89.69;97830.22;5214654;28;20679;-59
2021/03/19 05:48:46;;;;;;;30.97;26.57;;;1.40;99.90;;;2.26;90.23;97842.41;5207232;28;20212;-57
2021/03/19 05:51:37;;;;;;;32.07;27.47;;;1.50;99.90;;;2.24;90.55;97847.34;5204582;28;20585;-58
2021/03/19 05:54:25;;;;;;;34.43;27.07;;;1.50;99.90;;;2.13;89.48;97850.56;5209912;28;20216;-58
2021/03/19 05:57:15;;;;;;;33.90;27.73;;;1.40;99.90;;;2.06;89.59;97848.25;5207726;28;20204;-58
2021/03/19 05:59:50;;;;;;;33.33;26.67;;;1.30;99.90;;;2.09;90.11;97858.59;5207817;28;20212;-59
2021/03/19 06:02:30;;;;;;;35.77;26.73;;;1.40;99.90;;;2.08;89.64;97851.78;5205310;28;20200;-57
2021/03/19 06:05:12;;;;;;;30.63;25.70;;;1.30;99.90;;;2.10;89.92;97850.28;5201689;28;20295;-56
2021/03/19 06:07:48;;;;;;;32.87;26.20;;;1.40;99.90;;;2.14;89.92;97854.84;5206748;28;20198;-59
2021/03/19 06:10:35;;;;;;;32.90;28.53;;;1.50;99.90;;;2.14;90.50;97866.56;5206260;28;20224;-58
2021/03/19 06:13:15;;;;;;;36.97;28.40;;;1.50;99.90;;;2.22;90.72;97866.50;5207692;28;20688;-58
2021/03/19 06:15:50;;;;;;;37.57;29.93;;;1.60;99.90;;;2.28;90.39;97870.31;5208535;28;20566;-58
2021/03/19 06:18:33;;;;;;;34.10;27.57;;;1.50;99.90;;;2.34;90.06;97870.84;5207436;28;20683;-59
2021/03/19 06:21:13;;;;;;;35.60;28.87;;;1.60;99.90;;;2.45;90.16;97872.69;5206628;28;20223;-59
2021/03/19 06:24:05;;;;;;;37.30;28.43;;;1.60;99.90;;;2.46;89.45;97871.91;5206200;28;20201;-59
2021/03/19 06:26:41;;;;;;;33.10;27.30;;;1.70;99.90;;;2.50;89.56;97884.06;5206123;28;20198;-59
2021/03/19 06:29:22;;;;;;;35.10;28.53;;;1.70;99.90;;;2.52;89.68;97876.63;5206463;28;20194;-59
2021/03/19 06:32:13;;;;;;;34.27;27.60;;;1.70;99.90;;;2.50;88.45;97875.63;5206566;28;20221;-60
2021/03/19 06:34:57;;;;;;;34.97;28.13;;;1.60;99.90;;;2.53;88.12;97876.78;5206731;28;20202;-60
2021/03/19 06:37:35;;;;;;;38.33;29.07;;;1.60;99.90;;;2.58;88.23;97878.06;5198909;28;20200;-59
2021/03/19 06:40:30;;;;;;;34.17;28.27;;;1.80;99.90;;;2.63;87.68;97871.78;5206579;28;20223;-60
2021/03/19 06:43:18;;;;;;;33.00;28.23;;;1.80;99.90;;;2.64;88.33;97877.72;5205590;28;20190;-58
2021/03/19 06:46:07;;;;;;;34.17;27.97;;;1.80;99.90;;;2.65;88.92;97865.22;5205899;28;20208;-57
2021/03/19 06:48:42;;;;;;;35.77;29.43;;;1.90;99.90;;;2.77;88.12;97872.09;5207345;28;20213;-59
2021/03/19 06:51:25;;;;;;;35.67;28.47;;;1.90;99.90;;;2.82;88.61;97868.34;5206447;28;20228;-59
2021/03/19 06:54:01;;;;;;;35.27;28.47;;;1.90;99.90;;;2.85;88.41;97868.59;5207619;28;20205;-59
2021/03/19 06:56:34;;;;;;;37.00;30.40;;;2.00;99.90;;;2.88;88.38;97859.63;5206378;28;20269;-59
2021/03/19 06:59:23;;;;;;;34.33;30.57;;;2.00;99.90;;;2.94;88.36;97867.75;5206814;28;20195;-59
2021/03/19 07:01:56;;;;;;;36.90;30.73;;;2.10;99.90;;;3.02;88.31;97875.97;5207117;28;20225;-59
2021/03/19 07:04:57;;;;;;;37.47;29.00;;;2.10;99.90;;;3.12;88.13;97865.94;5206956;28;20282;-59
2021/03/19 07:07:57;;;;;;;36.37;29.97;;;2.30;99.90;;;3.26;88.07;97868.72;5206564;28;20202;-59
2021/03/19 07:11:03;;;;;;;39.57;31.10;;;2.40;99.90;;;3.27;87.53;97868.88;5205992;28;20235;-59
2021/03/19 07:13:56;;;;;;;39.97;31.63;;;2.30;99.90;;;3.38;86.55;97875.72;5186651;28;20214;-58
2021/03/19 07:16:46;;;;;;;37.13;32.43;;;2.40;99.90;;;3.32;86.20;97874.28;5186949;28;20297;-59
2021/03/19 07:19:23;;;;;;;39.23;33.73;;;2.40;99.90;;;3.32;86.49;97870.16;5199327;28;20224;-58
2021/03/19 07:22:09;;;;;;;39.80;32.40;;;2.40;99.90;;;3.33;86.38;97881.13;5206706;28;20227;-56
2021/03/19 07:25:03;;;;;;;38.87;31.77;;;2.40;99.90;;;3.37;86.52;97885.69;5206948;28;20193;-59
2021/03/19 07:27:49;;;;;;;40.03;33.00;;;2.40;99.90;;;3.44;85.42;97890.50;5205548;28;20570;-59
2021/03/19 07:30:28;;;;;;;37.97;32.83;;;2.40;99.90;;;3.44;85.16;97889.63;5206324;28;20225;-58
2021/03/19 07:33:34;;;;;;;40.77;33.17;;;2.40;99.90;;;3.31;85.63;97890.22;5207011;28;20225;-57
2021/03/19 07:36:18;;;;;;;40.07;32.37;;;2.40;99.90;;;3.34;86.17;97893.00;5203336;28;20259;-58
2021/03/19 07:39:22;;;;;;;39.20;33.23;;;2.40;99.90;;;3.39;86.36;97892.63;5207163;28;20673;-59
2021/03/19 07:42:18;;;;;;;39.40;33.77;;;2.50;99.90;;;3.43;86.54;97896.28;5206881;28;20220;-56
2021/03/19 07:45:01;;;;;;;43.23;35.00;;;2.40;99.90;;;3.44;86.62;97900.63;5208251;28;20659;-58
2021/03/19 07:48:08;;;;;;;39.67;33.37;;;2.50;99.90;;;3.50;86.29;97908.72;5210884;28;20586;-60
2021/03/19 07:50:49;;;;;;;39.47;33.67;;;2.50;99.90;;;3.54;85.79;97902.28;5210066;28;20236;-59
2021/03/19 07:53:58;;;;;;;37.87;33.27;;;2.60;99.90;;;3.55;85.72;97899.00;5210792;28;20201;-57
2021/03/19 07:56:44;;;;;;;40.43;33.83;;;2.50;99.90;;;3.61;85.15;97897.88;5184706;28;20206;-59
2021/03/19 07:59:30;;;;;;;37.90;32.70;;;2.50;99.90;;;3.63;85.46;97897.09;5196758;28;20681;-59
2021/03/19 08:02:42;;;;;;;35.80;31.40;;;2.50;99.90;;;3.64;84.95;97902.31;5209804;28;20218;-59
2021/03/19 08:05:25;;;;;;;33.90;29.10;;;2.60;99.90;;;3.70;84.68;97904.47;5210365;28;20645;-62
2021/03/19 08:08:23;;;;;;;32.53;27.60;;;2.60;99.90;;;3.78;84.38;97903.47;5210352;28;20190;-60
2021/03/19 08:11:13;;;;;;;32.30;28.17;;;2.70;99.90;;;3.76;84.53;97905.84;5210518;28;20227;-58
2021/03/19 08:14:14;;;;;;;27.53;24.70;;;2.80;99.90;;;3.74;84.27;97904.81;5207685;28;20569;-59
2021/03/19 08:16:56;;;;;;;30.77;26.90;;;2.70;99.90;;;3.82;84.02;97906.34;5207903;28;20198;-60
2021/03/19 08:19:34;;;;;;;27.40;24.53;;;2.80;99.90;;;3.81;84.12;97906.25;5208845;28;20290;-59
2021/03/19 08:22:16;;;;;;;28.27;25.27;;;2.70;99.90;;;3.69;84.67;97902.66;5210300;28;20221;-59
2021/03/19 08:24:56;;;;;;;26.67;23.97;;;2.70;99.90;;;3.61;85.07;97905.44;5210541;28;20209;-59
2021/03/19 08:27:40;;;;;;;28.17;25.27;;;2.70;99.90;;;3.59;85.98;97906.94;5210152;28;20295;-59
2021/03/19 08:30:28;;;;;;;26.87;24.03;;;2.70;99.90;;;3.59;85.32;97912.00;5208734;28;20229;-59
2021/03/19 08:33:09;;;;;;;27.10;24.40;;;2.70;99.90;;;3.63;85.37;97914.78;5206193;28;20226;-59
2021/03/19 08:35:52;;;;;;;27.70;24.63;;;2.70;99.90;;;3.62;85.99;97911.38;5206643;28;20204;-58
2021/03/19 08:38:32;;;;;;;28.33;25.33;;;2.60;99.90;;;3.53;85.97;97916.53;5205658;28;20221;-59
2021/03/19 08:41:09;;;;;;;27.83;24.80;;;2.60;99.90;;;3.63;86.17;97918.19;5207371;28;20264;-58
2021/03/19 08:43:47;;;;;;;27.60;24.70;;;2.70;99.90;;;3.68;86.71;97926.19;5209170;28;20190;-59
2021/03/19 08:46:26;;;;;;;28.70;25.60;;;2.80;99.90;;;3.78;86.65;97916.09;5209130;28;20200;-55
2021/03/19 08:49:01;;;;;;;27.90;25.00;;;2.80;99.90;;;3.90;86.35;97917.13;5209129;28;20232;-58
2021/03/19 08:51:40;;;;;;;27.70;24.70;;;2.80;99.90;;;3.89;86.18;97922.91;5208650;28;20677;-59
2021/03/19 08:54:26;;;;;;;29.67;26.43;;;2.90;99.90;;;3.92;86.06;97920.66;5208297;28;20667;-58
2021/03/19 08:57:32;;;;;;;26.07;23.10;;;2.90;99.90;;;3.86;85.77;97926.84;5208387;28;20209;-59
2021/03/19 09:00:08;;;;;;;29.37;26.23;;;2.90;99.90;;;3.82;86.40;97926.56;5201384;28;20196;-58
2021/03/19 09:02:52;;;;;;;28.20;24.97;;;2.90;99.90;;;3.82;86.24;97928.22;5207424;28;20734;-59
2021/03/19 09:05:33;;;;;;;28.27;25.27;;;2.80;99.90;;;3.64;86.32;97930.09;5207423;28;20280;-59
2021/03/19 09:08:27;;;;;;;28.00;25.00;;;2.70;99.90;;;3.48;86.93;97927.91;5208146;28;20706;-59
2021/03/19 09:11:12;;;;;;;30.30;25.73;;;2.60;99.90;;;3.36;87.40;97935.31;5189735;28;20768;-59
2021/03/19 09:14:31;;;;;;;32.93;27.27;;;2.60;99.90;;;3.24;88.47;97941.84;5208302;28;20281;-59
2021/03/19 09:17:05;;;;;;;30.70;27.30;;;2.50;99.90;;;3.22;88.90;97945.00;5206663;28;20206;-59
2021/03/19 09:20:04;;;;;;;36.33;29.50;;;2.50;99.90;;;3.31;88.81;97950.84;5208227;28;20204;-59
2021/03/19 09:22:47;;;;;;;37.10;29.60;;;2.50;99.90;;;3.32;89.37;97952.59;5206801;28;20597;-59
2021/03/19 09:25:50;;;;;;;33.87;29.77;;;2.50;99.90;;;3.42;89.02;97951.75;5200127;28;20677;-59
2021/03/19 09:28:40;;;;;;;36.17;31.40;;;2.60;99.90;;;3.62;89.47;97949.28;5206928;28;20201;-59
2021/03/19 09:31:40;;;;;;;32.80;29.33;;;2.60;99.90;;;3.86;88.59;97944.53;5206389;28;20729;-58
2021/03/19 09:34:23;;;;;;;33.30;29.40;;;2.80;99.90;;;4.05;87.98;97948.72;5206142;28;20198;-59
2021/03/19 09:37:05;;;;;;;33.27;28.90;;;2.90;99.90;;;4.19;88.13;97943.94;5206692;28;20201;-59
2021/03/19 09:40:00;;;;;;;32.37;28.33;;;3.00;99.90;;;4.35;87.45;97957.09;5204279;28;20200;-59
2021/03/19 09:42:55;;;;;;;31.47;28.03;;;3.10;99.90;;;4.37;87.02;97949.63;5206676;28;20194;-57
2021/03/19 09:45:43;;;;;;;30.20;26.17;;;3.20;99.90;;;4.39;86.77;97951.53;5206186;28;20193;-59
2021/03/19 09:48:37;;;;;;;27.57;24.20;;;3.20;99.90;;;4.32;86.98;97955.94;5202529;28;20723;-59
2021/03/19 09:51:31;;;;;;;27.73;24.73;;;3.10;99.90;;;4.24;87.15;97960.38;5206308;28;20249;-59
2021/03/19 09:54:34;;;;;;;28.63;24.33;;;3.10;99.90;;;4.14;87.89;97961.25;5207394;28;20205;-59
2021/03/19 09:57:25;;;;;;;28.97;25.23;;;3.20;99.90;;;3.98;88.36;97960.75;5200687;28;20209;-59
2021/03/19 10:00:07;;;;;;;27.80;24.80;;;3.00;99.90;;;3.76;88.84;97955.53;5202854;28;20222;-59
2021/03/19 10:02:41;;;;;;;29.50;25.83;;;2.90;99.90;;;3.74;89.69;97957.91;5205833;28;20213;-58
2021/03/19 10:05:17;;;;;;;29.53;26.37;;;2.80;99.90;;;3.87;89.47;97969.06;5206553;28;20296;-59
2021/03/19 10:07:53;;;;;;;29.77;26.30;;;2.80;99.90;;;4.03;89.80;97973.03;5205836;28;20198;-59
2021/03/19 10:10:31;;;;;;;28.73;25.70;;;3.00;99.90;;;4.00;90.07;97967.69;5205876;28;20216;-59
2021/03/19 10:13:10;;;;;;;28.40;25.37;;;3.00;99.90;;;4.16;89.34;97979.09;5206477;28;20221;-59
2021/03/19 10:15:43;;;;;;;29.10;25.37;;;3.10;99.90;;;4.02;90.00;97978.81;5204634;28;20196;-59
2021/03/19 10:18:27;;;;;;;27.07;24.17;;;3.10;99.90;;;4.07;89.66;97976.69;5207379;28;20628;-59
2021/03/19 10:21:04;;;;;;;27.07;24.17;;;3.10;99.90;;;4.11;89.80;97975.28;5208693;28;20233;-59
2021/03/19 10:23:40;;;;;;;26.83;23.97;;;3.10;99.90;;;4.16;89.76;97971.50;5207553;28;20210;-58
2021/03/19 10:26:23;;;;;;;27.17;24.37;;;3.20;99.90;;;4.22;89.80;97977.06;5209006;28;20566;-59
2021/03/19 10:29:07;;;;;;;25.70;22.93;;;3.30;99.90;;;4.44;89.39;97972.16;5207705;28;20536;-57
2021/03/19 10:31:44;;;;;;;26.10;23.40;;;3.30;99.90;;;4.46;88.12;97974.06;5209177;28;20310;-58
2021/03/19 10:34:27;;;;;;;25.53;22.73;;;3.40;99.90;;;4.38;88.36;97975.06;5209546;28;20590;-59
2021/03/19 10:37:06;;;;;;;26.17;23.37;;;3.40;99.90;;;4.43;88.20;97975.41;5208666;28;20704;-57
2021/03/19 10:39:46;;;;;;;27.07;24.10;;;3.30;99.90;;;4.40;88.14;97980.22;5208820;28;20581;-58
2021/03/19 10:42:27;;;;;;;31.93;23.03;;;3.40;99.90;;;4.37;88.37;97974.91;5208628;28;20220;-60
2021/03/19 10:45:17;;;;;;;27.47;24.47;;;3.40;99.90;;;4.44;88.82;97977.22;5198179;28;20202;-59
2021/03/19 10:47:55;;;;;;;24.27;20.80;;;3.50;99.90;;;4.49;88.92;97981.91;5199672;28;20562;-59
2021/03/19 10:50:37;;;;;;;15.67;13.90;;;3.60;99.90;;;4.67;89.40;97981.63;5204325;28;20614;-59
2021/03/19 10:53:15;;;;;;;15.00;13.50;;;3.80;99.90;;;4.78;87.11;97980.84;5232831;23;20238;-62
2021/03/19 10:55:51;;;;;;;14.63;13.20;;;3.90;99.90;;;4.90;85.01;97974.25;5217897;28;20250;-59
2021/03/19 10:58:42;;;;;;;14.17;12.67;;;4.10;99.90;;;5.00;86.00;97974.97;5215982;28;20272;-59
2021/03/19 11:01:34;;;;;;;16.30;13.27;;;4.20;99.90;;;5.14;84.86;97971.88;5215113;28;20394;-61
2021/03/19 11:04:32;;;;;;;13.47;12.17;;;4.40;99.90;;;5.35;85.18;97973.59;5202386;28;20228;-61
2021/03/19 11:07:33;;;;;;;11.87;10.77;;;4.50;99.90;;;5.14;80.17;97971.88;5193664;28;20201;-63
2021/03/19 11:10:23;;;;;;;11.33;10.10;;;4.40;99.90;;;4.92;78.22;97985.38;5192907;28;20546;-61
2021/03/19 11:13:25;;;;;;;10.63;9.63;;;4.30;99.90;;;4.69;80.37;97986.06;5193303;28;20227;-58
2021/03/19 11:15:59;;;;;;;10.33;9.33;;;4.10;99.90;;;4.59;80.44;97986.06;5201354;28;20769;-62
2021/03/19 11:18:35;;;;;;;11.63;10.50;;;4.00;99.90;;;4.61;79.89;97996.31;5203743;28;20196;-60
2021/03/19 11:21:31;;;;;;;10.97;9.97;;;4.00;99.90;;;4.45;80.97;98000.09;5199958;28;20589;-59
2021/03/19 11:24:15;;;;;;;10.73;9.77;;;3.90;99.90;;;4.52;81.19;98001.47;5196385;28;20461;-60